Time;durP1;ratioP1;P1;durP2;ratioP2;P2;SDS_P1;SDS_P2;PMS_P1;PMS_P2;Temp;Humidity;BMP_temperature;BMP_pressure;BME280_temperature;BME280_humidity;BME280_pressure;Samples;Min_cycle;Max_cycle;Signal;HPM_P1;HPM_P2
2021/06/23 00:01:51;;;;;;;7.15;4.82;;;;;;;;;;5064453;28;20059;-69
2021/06/23 00:04:18;;;;;;;5.57;4.18;;;;;;;;;;5063240;28;20044;-68
2021/06/23 00:06:44;;;;;;;6.72;4.00;;;;;;;;;;5064506;28;20076;-67
2021/06/23 00:09:11;;;;;;;5.35;4.10;;;;;;;;;;5064533;28;20064;-69
2021/06/23 00:11:43;;;;;;;7.72;4.18;;;;;;;;;;5066109;28;20052;-67
2021/06/23 00:14:09;;;;;;;7.93;3.73;;;;;;;;;;5063313;28;20102;-69
2021/06/23 00:16:36;;;;;;;6.45;3.95;;;;;;;;;;5066061;28;20098;-69
2021/06/23 00:19:03;;;;;;;4.78;3.75;;;;;;;;;;5063728;28;20081;-68
2021/06/23 00:21:29;;;;;;;6.85;3.42;;;;;;;;;;5065847;28;20044;-69
2021/06/23 00:23:56;;;;;;;5.45;3.50;;;;;;;;;;5063634;28;20053;-69
2021/06/23 00:26:22;;;;;;;6.38;4.07;;;;;;;;;;5065422;28;20593;-68
2021/06/23 00:28:49;;;;;;;7.90;4.03;;;;;;;;;;5063459;28;20053;-69
2021/06/23 00:31:16;;;;;;;4.18;3.70;;;;;;;;;;5065421;28;20068;-69
2021/06/23 00:33:42;;;;;;;5.30;4.80;;;;;;;;;;5063467;28;20059;-68
2021/06/23 00:36:09;;;;;;;7.80;3.83;;;;;;;;;;5063793;28;20044;-68
2021/06/23 00:38:36;;;;;;;8.25;4.47;;;;;;;;;;5063974;28;20703;-69
2021/06/23 00:41:02;;;;;;;5.97;4.07;;;;;;;;;;5062962;28;20344;-69
2021/06/23 00:43:29;;;;;;;5.25;3.63;;;;;;;;;;5081986;28;20041;-67
2021/06/23 00:45:55;;;;;;;5.95;4.28;;;;;;;;;;5062248;28;20080;-68
2021/06/23 00:48:29;;;;;;;4.72;4.18;;;;;;;;;;5061455;28;20046;-70
2021/06/23 00:50:57;;;;;;;7.00;4.18;;;;;;;;;;5058727;28;20163;-70
2021/06/23 00:53:23;;;;;;;4.93;4.45;;;;;;;;;;5062883;28;20095;-68
2021/06/23 00:55:52;;;;;;;7.80;4.68;;;;;;;;;;5057243;28;20077;-69
2021/06/23 00:58:19;;;;;;;8.55;5.05;;;;;;;;;;5060037;28;20071;-69
2021/06/23 01:00:45;;;;;;;7.57;5.30;;;;;;;;;;5074859;28;20132;-69
2021/06/23 01:03:12;;;;;;;6.82;4.82;;;;;;;;;;5072944;28;20519;-69
2021/06/23 01:05:39;;;;;;;8.32;5.38;;;;;;;;;;5060859;28;20087;-69
2021/06/23 01:08:07;;;;;;;9.52;5.85;;;;;;;;;;5058315;28;20086;-69
2021/06/23 01:10:35;;;;;;;9.38;5.78;;;;;;;;;;5073521;28;20072;-69
2021/06/23 01:13:23;;;;;;;7.65;6.20;;;;;;;;;;5057298;28;20053;-69
2021/06/23 01:15:50;;;;;;;10.48;6.50;;;;;;;;;;5074676;28;20120;-68
2021/06/23 01:18:16;;;;;;;8.27;6.45;;;;;;;;;;5057953;28;20045;-70
2021/06/23 01:20:44;;;;;;;7.35;5.78;;;;;;;;;;5056485;28;20084;-68
2021/06/23 01:23:11;;;;;;;7.80;6.30;;;;;;;;;;5058822;28;20048;-68
2021/06/23 01:25:38;;;;;;;8.05;6.03;;;;;;;;;;5057311;28;20080;-67
2021/06/23 01:28:05;;;;;;;8.80;5.60;;;;;;;;;;5058970;28;20072;-68
2021/06/23 01:30:32;;;;;;;6.25;5.57;;;;;;;;;;5056534;28;20080;-68
2021/06/23 01:32:59;;;;;;;6.88;5.80;;;;;;;;;;5055933;28;20049;-68
2021/06/23 01:35:29;;;;;;;8.27;5.93;;;;;;;;;;5056701;28;20044;-68
2021/06/23 01:37:55;;;;;;;7.18;6.10;;;;;;;;;;5058396;28;20087;-68
2021/06/23 01:40:22;;;;;;;7.38;6.15;;;;;;;;;;5056650;28;20087;-68
2021/06/23 01:42:49;;;;;;;7.97;6.13;;;;;;;;;;5058207;28;20056;-68
2021/06/23 01:45:16;;;;;;;9.10;5.88;;;;;;;;;;5056998;28;20130;-68
2021/06/23 01:47:43;;;;;;;8.80;6.20;;;;;;;;;;5063743;28;20072;-67
2021/06/23 01:50:11;;;;;;;8.60;6.60;;;;;;;;;;5061113;28;20102;-68
2021/06/23 01:52:42;;;;;;;7.25;5.72;;;;;;;;;;5059962;28;20057;-68
2021/06/23 01:55:26;;;;;;;10.15;6.88;;;;;;;;;;5061960;28;20087;-68
2021/06/23 01:58:06;;;;;;;11.68;7.60;;;;;;;;;;5060918;28;20048;-68
2021/06/23 02:00:54;;;;;;;8.70;7.07;;;;;;;;;;5063549;28;20080;-69
2021/06/23 02:03:42;;;;;;;11.80;6.78;;;;;;;;;;5056661;28;20097;-68
2021/06/23 02:06:37;;;;;;;14.10;8.00;;;;;;;;;;5063423;28;20072;-68
2021/06/23 02:09:12;;;;;;;9.18;7.05;;;;;;;;;;5073098;28;20088;-68
2021/06/23 02:11:40;;;;;;;9.70;7.38;;;;;;;;;;5079499;28;20115;-69
2021/06/23 02:14:15;;;;;;;7.43;6.65;;;;;;;;;;5059626;28;20087;-69
2021/06/23 02:16:42;;;;;;;8.57;6.72;;;;;;;;;;5059357;28;20080;-69
2021/06/23 02:19:09;;;;;;;9.35;7.43;;;;;;;;;;5075900;28;20053;-69
2021/06/23 02:21:40;;;;;;;9.60;7.65;;;;;;;;;;5060986;28;20479;-68
2021/06/23 02:24:07;;;;;;;10.98;7.63;;;;;;;;;;5059885;28;20076;-68
2021/06/23 02:26:34;;;;;;;8.50;7.13;;;;;;;;;;5059976;28;20080;-67
2021/06/23 02:29:05;;;;;;;8.32;7.13;;;;;;;;;;5058878;28;20087;-68
2021/06/23 02:31:32;;;;;;;10.90;7.40;;;;;;;;;;5058442;28;20076;-68
2021/06/23 02:33:58;;;;;;;11.25;7.72;;;;;;;;;;5059724;28;20108;-67
2021/06/23 02:36:25;;;;;;;17.25;8.93;;;;;;;;;;5058622;28;20079;-68
2021/06/23 02:38:52;;;;;;;10.00;7.90;;;;;;;;;;5078221;28;20075;-67
2021/06/23 02:41:19;;;;;;;10.23;7.80;;;;;;;;;;5060723;28;20080;-68
2021/06/23 02:43:46;;;;;;;12.55;8.27;;;;;;;;;;5059429;28;20080;-67
2021/06/23 02:46:12;;;;;;;10.85;7.93;;;;;;;;;;5059608;28;20084;-66
2021/06/23 02:48:39;;;;;;;9.02;7.25;;;;;;;;;;5059597;28;20056;-67
2021/06/23 02:51:12;;;;;;;9.45;7.40;;;;;;;;;;5075357;28;20413;-67
2021/06/23 02:53:39;;;;;;;12.48;8.50;;;;;;;;;;5057950;28;20076;-68
2021/06/23 02:56:06;;;;;;;12.02;8.02;;;;;;;;;;5060029;28;20080;-68
2021/06/23 02:58:32;;;;;;;10.45;7.57;;;;;;;;;;5044966;28;20036;-68
2021/06/23 03:00:59;;;;;;;13.02;8.48;;;;;;;;;;5073785;28;20497;-68
2021/06/23 03:03:25;;;;;;;9.20;7.80;;;;;;;;;;5058820;28;20045;-68
2021/06/23 03:05:52;;;;;;;11.10;8.15;;;;;;;;;;5060775;28;20105;-68
2021/06/23 03:08:19;;;;;;;10.60;7.75;;;;;;;;;;5059365;28;20049;-66
2021/06/23 03:10:45;;;;;;;10.52;8.45;;;;;;;;;;5060682;28;20086;-68
2021/06/23 03:13:12;;;;;;;11.40;8.00;;;;;;;;;;5059196;28;20487;-68
2021/06/23 03:15:38;;;;;;;10.70;7.70;;;;;;;;;;5060291;28;20079;-68
2021/06/23 03:18:05;;;;;;;9.45;7.43;;;;;;;;;;5059151;28;20573;-68
2021/06/23 03:20:32;;;;;;;11.57;8.13;;;;;;;;;;5058443;28;20045;-67
2021/06/23 03:22:59;;;;;;;8.57;7.68;;;;;;;;;;5058765;28;20092;-68
2021/06/23 03:25:25;;;;;;;7.80;7.05;;;;;;;;;;5060160;28;20068;-66
2021/06/23 03:27:53;;;;;;;12.15;8.48;;;;;;;;;;5062950;28;20084;-68
2021/06/23 03:30:22;;;;;;;7.90;7.20;;;;;;;;;;5059165;28;20087;-68
2021/06/23 03:32:50;;;;;;;10.02;7.75;;;;;;;;;;5075555;28;20045;-66
2021/06/23 03:35:21;;;;;;;10.10;6.55;;;;;;;;;;5092593;22;20041;-66
2021/06/23 03:37:48;;;;;;;8.95;6.68;;;;;;;;;;5064705;28;20448;-66
2021/06/23 03:40:15;;;;;;;8.00;6.43;;;;;;;;;;5078688;28;20151;-67
2021/06/23 03:42:42;;;;;;;10.98;7.93;;;;;;;;;;5083565;28;20106;-69
2021/06/23 03:45:10;;;;;;;12.43;8.45;;;;;;;;;;5062452;28;20052;-68
2021/06/23 03:47:37;;;;;;;11.60;8.23;;;;;;;;;;5080547;28;20098;-68
2021/06/23 03:50:05;;;;;;;9.68;8.07;;;;;;;;;;5079068;28;20084;-67
2021/06/23 03:52:31;;;;;;;10.23;8.13;;;;;;;;;;5061928;28;20048;-68
2021/06/23 03:54:58;;;;;;;10.57;7.32;;;;;;;;;;5080143;28;20060;-69
2021/06/23 03:57:24;;;;;;;10.30;8.13;;;;;;;;;;5080283;28;20049;-68
2021/06/23 03:59:51;;;;;;;12.63;8.25;;;;;;;;;;5078680;28;20089;-68
2021/06/23 04:02:18;;;;;;;12.43;7.68;;;;;;;;;;5081570;28;20044;-69
2021/06/23 04:04:47;;;;;;;9.80;8.75;;;;;;;;;;5079690;28;20106;-68
2021/06/23 04:07:14;;;;;;;12.18;8.65;;;;;;;;;;5076411;28;20463;-68
2021/06/23 04:09:41;;;;;;;15.45;9.30;;;;;;;;;;5077892;28;20514;-69
2021/06/23 04:12:09;;;;;;;10.60;8.98;;;;;;;;;;5076636;28;20338;-68
2021/06/23 04:14:36;;;;;;;9.65;8.00;;;;;;;;;;5080606;28;20079;-69
2021/06/23 04:17:03;;;;;;;11.95;8.70;;;;;;;;;;5085438;28;20051;-68
2021/06/23 04:19:30;;;;;;;9.30;8.00;;;;;;;;;;5091627;28;20094;-68
2021/06/23 04:21:57;;;;;;;12.10;8.07;;;;;;;;;;5084296;28;20102;-69
2021/06/23 04:24:23;;;;;;;13.85;8.05;;;;;;;;;;5092149;28;20502;-68
2021/06/23 04:26:50;;;;;;;8.70;7.90;;;;;;;;;;5086572;28;20052;-68
2021/06/23 04:29:17;;;;;;;9.13;7.07;;;;;;;;;;5088056;28;20036;-68
2021/06/23 04:31:43;;;;;;;9.15;6.35;;;;;;;;;;5087468;28;20079;-67
2021/06/23 04:34:10;;;;;;;10.32;5.43;;;;;;;;;;5090417;28;20048;-68
2021/06/23 04:36:36;;;;;;;7.78;5.10;;;;;;;;;;5072074;28;20052;-68
2021/06/23 04:39:03;;;;;;;7.68;5.40;;;;;;;;;;5090807;28;20044;-67
2021/06/23 04:41:30;;;;;;;7.55;5.15;;;;;;;;;;5087311;28;20074;-67
2021/06/23 04:43:56;;;;;;;8.75;6.15;;;;;;;;;;5089160;28;20052;-68
2021/06/23 04:46:23;;;;;;;8.63;5.38;;;;;;;;;;5093091;28;20040;-68
2021/06/23 04:48:50;;;;;;;9.38;6.47;;;;;;;;;;5106443;28;20072;-67
2021/06/23 04:51:17;;;;;;;9.65;6.30;;;;;;;;;;5096325;28;20040;-68
2021/06/23 04:53:44;;;;;;;7.95;5.97;;;;;;;;;;5091095;28;20048;-67
2021/06/23 04:56:10;;;;;;;7.13;5.32;;;;;;;;;;5094277;28;20082;-68
2021/06/23 04:58:37;;;;;;;6.60;5.70;;;;;;;;;;5093978;28;20047;-67
2021/06/23 05:01:03;;;;;;;9.77;6.28;;;;;;;;;;5097699;28;20158;-68
2021/06/23 05:03:30;;;;;;;7.18;5.55;;;;;;;;;;5101342;28;20040;-66
2021/06/23 05:05:58;;;;;;;6.65;5.38;;;;;;;;;;5101307;28;20028;-66
2021/06/23 05:08:30;;;;;;;7.18;4.88;;;;;;;;;;5101696;28;20036;-65
2021/06/23 05:10:56;;;;;;;8.65;5.28;;;;;;;;;;5085096;28;20059;-67
2021/06/23 05:13:24;;;;;;;4.22;3.33;;;;;;;;;;5095887;28;20047;-68
2021/06/23 05:15:52;;;;;;;4.55;3.20;;;;;;;;;;5100642;28;20049;-65
2021/06/23 05:18:18;;;;;;;3.92;3.25;;;;;;;;;;5098376;28;20044;-68
2021/06/23 05:20:45;;;;;;;5.20;4.05;;;;;;;;;;5094292;28;20048;-67
2021/06/23 05:23:12;;;;;;;4.53;4.00;;;;;;;;;;5103874;28;20052;-69
2021/06/23 05:25:38;;;;;;;4.93;4.05;;;;;;;;;;5102441;28;20048;-66
2021/06/23 05:28:05;;;;;;;4.55;3.80;;;;;;;;;;5104065;28;20041;-68
2021/06/23 05:30:32;;;;;;;4.30;3.45;;;;;;;;;;5103359;28;20060;-69
2021/06/23 05:32:58;;;;;;;3.63;3.28;;;;;;;;;;5101942;28;20043;-65
2021/06/23 05:35:25;;;;;;;4.85;3.63;;;;;;;;;;5100857;28;20048;-66
2021/06/23 05:37:51;;;;;;;5.78;4.85;;;;;;;;;;5104022;28;20071;-68
2021/06/23 05:40:18;;;;;;;7.50;4.70;;;;;;;;;;5100072;28;20056;-69
2021/06/23 05:42:45;;;;;;;5.57;4.57;;;;;;;;;;5095694;28;20097;-65
2021/06/23 05:45:12;;;;;;;4.57;4.18;;;;;;;;;;5095357;28;20063;-68
2021/06/23 05:47:38;;;;;;;4.65;4.22;;;;;;;;;;5094780;28;20490;-69
2021/06/23 05:50:05;;;;;;;7.30;5.88;;;;;;;;;;5111412;28;20052;-68
2021/06/23 05:52:32;;;;;;;6.47;5.88;;;;;;;;;;5102969;28;20048;-69
2021/06/23 05:54:58;;;;;;;11.75;6.80;;;;;;;;;;5099741;28;20058;-69
2021/06/23 05:57:25;;;;;;;7.22;6.05;;;;;;;;;;5097367;28;20041;-66
2021/06/23 05:59:52;;;;;;;7.22;6.53;;;;;;;;;;5098083;28;20044;-68
2021/06/23 06:02:18;;;;;;;7.47;5.65;;;;;;;;;;5096555;28;20407;-69
2021/06/23 06:04:45;;;;;;;6.85;6.15;;;;;;;;;;5102364;28;20052;-68
2021/06/23 06:07:11;;;;;;;7.22;5.88;;;;;;;;;;5103202;28;20141;-67
2021/06/23 06:09:38;;;;;;;9.55;5.80;;;;;;;;;;5103112;28;20051;-67
2021/06/23 06:12:05;;;;;;;6.13;5.53;;;;;;;;;;5098883;28;20079;-66
2021/06/23 06:14:32;;;;;;;6.28;5.30;;;;;;;;;;5084169;28;20082;-68
2021/06/23 06:17:00;;;;;;;5.70;4.80;;;;;;;;;;5100693;28;20048;-71
2021/06/23 06:19:27;;;;;;;6.80;4.72;;;;;;;;;;5106908;28;20103;-67
2021/06/23 06:21:54;;;;;;;6.30;4.90;;;;;;;;;;5100936;28;20052;-68
2021/06/23 06:24:21;;;;;;;6.80;4.28;;;;;;;;;;5103110;28;20044;-67
2021/06/23 06:26:48;;;;;;;7.43;3.85;;;;;;;;;;5101717;28;20040;-65
2021/06/23 06:29:14;;;;;;;5.80;2.97;;;;;;;;;;5106446;28;20032;-65
2021/06/23 06:31:41;;;;;;;5.55;3.90;;;;;;;;;;5109890;28;20028;-66
2021/06/23 06:34:08;;;;;;;3.92;2.78;;;;;;;;;;5106140;28;20041;-67
2021/06/23 06:36:35;;;;;;;3.45;3.15;;;;;;;;;;5109276;28;20036;-66
2021/06/23 06:39:02;;;;;;;3.92;2.58;;;;;;;;;;5106114;28;20187;-68
2021/06/23 06:41:29;;;;;;;2.97;1.88;;;;;;;;;;5074879;28;20067;-68
2021/06/23 06:43:56;;;;;;;2.10;1.92;;;;;;;;;;5107535;28;20052;-69
2021/06/23 06:46:22;;;;;;;1.83;1.67;;;;;;;;;;5104759;28;20047;-68
2021/06/23 06:48:49;;;;;;;2.38;1.80;;;;;;;;;;5092306;28;20039;-66
2021/06/23 06:51:16;;;;;;;1.50;1.40;;;;;;;;;;5112114;28;20032;-68
2021/06/23 06:53:42;;;;;;;1.60;1.50;;;;;;;;;;5111379;28;20048;-67
2021/06/23 06:56:09;;;;;;;2.08;1.60;;;;;;;;;;5104245;28;20044;-67
2021/06/23 06:58:36;;;;;;;6.63;1.60;;;;;;;;;;5095527;28;20091;-70
2021/06/23 07:01:03;;;;;;;1.52;1.20;;;;;;;;;;5091923;28;20085;-67
2021/06/23 07:03:31;;;;;;;2.30;1.58;;;;;;;;;;5098584;28;20074;-69
2021/06/23 07:05:57;;;;;;;1.48;1.35;;;;;;;;;;5099160;28;20419;-67
2021/06/23 07:08:24;;;;;;;1.40;1.30;;;;;;;;;;5100665;28;20094;-70
2021/06/23 07:10:51;;;;;;;1.55;1.42;;;;;;;;;;5084486;28;20097;-70
2021/06/23 07:13:17;;;;;;;3.53;1.42;;;;;;;;;;5097813;28;20379;-68
2021/06/23 07:15:44;;;;;;;1.55;1.33;;;;;;;;;;5098827;28;20119;-69
2021/06/23 07:18:11;;;;;;;1.70;1.60;;;;;;;;;;5111641;28;20040;-67
2021/06/23 07:20:37;;;;;;;2.97;1.70;;;;;;;;;;5112056;28;20085;-64
2021/06/23 07:23:04;;;;;;;1.38;1.13;;;;;;;;;;5090215;28;20044;-68
2021/06/23 07:25:30;;;;;;;1.95;1.30;;;;;;;;;;5089692;28;20051;-68
2021/06/23 07:28:00;;;;;;;2.42;1.35;;;;;;;;;;5101572;28;20032;-66
2021/06/23 07:30:28;;;;;;;2.28;1.42;;;;;;;;;;5080651;28;20036;-68
2021/06/23 07:33:01;;;;;;;1.80;1.55;;;;;;;;;;5101729;28;20032;-67
2021/06/23 07:38:14;;;;;;;1.70;1.50;;;;;;;;;;5098695;28;20305;-67
2021/06/23 07:40:58;;;;;;;2.42;1.58;;;;;;;;;;5082148;28;20503;-65
2021/06/23 07:43:25;;;;;;;3.92;2.10;;;;;;;;;;5076099;28;20029;-61
2021/06/23 07:45:53;;;;;;;2.40;1.60;;;;;;;;;;5081402;28;20045;-70
2021/06/23 07:48:25;;;;;;;3.10;1.40;;;;;;;;;;5080411;28;20093;-68
2021/06/23 07:51:02;;;;;;;1.40;1.30;;;;;;;;;;5087662;28;20063;-64
2021/06/23 07:53:38;;;;;;;2.28;1.33;;;;;;;;;;5085637;28;20068;-64
2021/06/23 07:56:09;;;;;;;1.63;1.05;;;;;;;;;;5087100;28;20088;-65
2021/06/23 08:09:46;;;;;;;2.45;1.30;;;;;;;;;;5082412;28;20315;-68
2021/06/23 08:12:17;;;;;;;1.55;1.30;;;;;;;;;;5084936;28;20048;-68
2021/06/23 08:14:44;;;;;;;5.47;1.70;;;;;;;;;;5084672;28;20057;-68
2021/06/23 08:17:11;;;;;;;1.30;1.20;;;;;;;;;;5084144;28;20033;-68
2021/06/23 08:19:38;;;;;;;1.20;1.20;;;;;;;;;;5074161;28;20506;-70
2021/06/23 08:22:04;;;;;;;3.78;1.75;;;;;;;;;;5076644;28;20045;-69
2021/06/23 08:24:31;;;;;;;1.75;1.30;;;;;;;;;;5086721;28;20055;-67
2021/06/23 08:26:58;;;;;;;1.30;1.20;;;;;;;;;;5085161;28;20037;-68
2021/06/23 08:29:24;;;;;;;7.10;2.53;;;;;;;;;;5083359;28;20029;-67
2021/06/23 08:31:51;;;;;;;3.60;1.13;;;;;;;;;;5068501;28;20045;-68
2021/06/23 08:34:17;;;;;;;4.63;1.65;;;;;;;;;;5082708;28;20037;-68
2021/06/23 08:36:44;;;;;;;2.42;1.63;;;;;;;;;;5087501;28;20049;-68
2021/06/23 08:39:11;;;;;;;5.20;1.77;;;;;;;;;;5085577;28;20029;-67
2021/06/23 08:41:37;;;;;;;1.30;1.17;;;;;;;;;;5083176;28;20052;-67
2021/06/23 08:44:05;;;;;;;2.55;1.00;;;;;;;;;;5087640;28;20267;-68
2021/06/23 08:46:32;;;;;;;3.28;1.40;;;;;;;;;;5067530;28;20044;-69
2021/06/23 08:48:59;;;;;;;0.88;0.80;;;;;;;;;;5056822;28;20045;-70
2021/06/23 08:51:26;;;;;;;0.90;0.90;;;;;;;;;;5042548;28;20045;-69
2021/06/23 08:53:52;;;;;;;2.60;1.20;;;;;;;;;;5042913;28;20113;-70
2021/06/23 08:56:19;;;;;;;1.35;1.00;;;;;;;;;;5056873;28;20565;-70
2021/06/23 08:58:46;;;;;;;2.00;1.02;;;;;;;;;;5058721;28;20114;-70
2021/06/23 09:01:13;;;;;;;3.58;1.98;;;;;;;;;;5055829;28;20083;-69
2021/06/23 09:03:59;;;;;;;2.22;1.55;;;;;;;;;;5056331;28;20092;-68
2021/06/23 09:06:40;;;;;;;1.77;1.00;;;;;;;;;;5058551;28;20072;-70
2021/06/23 09:09:15;;;;;;;0.85;0.85;;;;;;;;;;5057529;28;20681;-69
2021/06/23 09:11:42;;;;;;;5.15;1.52;;;;;;;;;;5058277;28;20169;-69
2021/06/23 09:14:11;;;;;;;1.38;0.98;;;;;;;;;;5062769;28;20052;-70
2021/06/23 09:16:57;;;;;;;1.58;1.00;;;;;;;;;;5061111;28;20083;-70
2021/06/23 09:19:46;;;;;;;1.90;0.70;;;;;;;;;;5056167;28;20056;-70
2021/06/23 09:22:36;;;;;;;0.63;0.63;;;;;;;;;;5063981;28;20045;-69
2021/06/23 09:25:23;;;;;;;1.88;0.90;;;;;;;;;;5058414;28;20048;-69
2021/06/23 09:27:56;;;;;;;1.17;0.73;;;;;;;;;;5062153;28;20126;-70
2021/06/23 09:30:27;;;;;;;0.75;0.75;;;;;;;;;;5061998;28;20052;-70
2021/06/23 09:33:12;;;;;;;0.70;0.70;;;;;;;;;;5064677;28;20094;-70
2021/06/23 09:35:45;;;;;;;4.40;0.80;;;;;;;;;;5086577;22;20056;-68
2021/06/23 09:38:50;;;;;;;0.60;0.60;;;;;;;;;;5061557;28;20414;-69
2021/06/23 09:41:19;;;;;;;0.90;0.70;;;;;;;;;;5058970;28;20068;-69
2021/06/23 09:44:05;;;;;;;0.95;0.80;;;;;;;;;;5056743;28;20073;-68
2021/06/23 09:46:41;;;;;;;1.45;0.88;;;;;;;;;;5061848;28;20643;-68
2021/06/23 09:49:23;;;;;;;0.95;0.70;;;;;;;;;;5066960;28;20095;-69
2021/06/23 09:52:06;;;;;;;0.52;0.52;;;;;;;;;;5060526;28;20084;-68
2021/06/23 09:54:33;;;;;;;0.80;0.80;;;;;;;;;;5058801;28;20044;-68
2021/06/23 09:57:06;;;;;;;2.72;0.98;;;;;;;;;;5045139;28;20102;-68
2021/06/23 09:59:41;;;;;;;;;;;;;;;;;;5062372;28;20198;-68
2021/06/23 10:02:30;;;;;;;2.83;1.38;;;;;;;;;;5059579;28;19988;-68
2021/06/23 10:05:03;;;;;;;0.95;0.95;;;;;;;;;;5057002;28;20052;-68
2021/06/23 10:07:42;;;;;;;2.25;0.70;;;;;;;;;;5061319;28;20110;-68
2021/06/23 10:10:10;;;;;;;1.15;0.52;;;;;;;;;;5060921;28;20574;-70
2021/06/23 10:12:36;;;;;;;0.57;0.57;;;;;;;;;;5069063;28;20125;-70
2021/06/23 10:15:04;;;;;;;1.42;0.82;;;;;;;;;;5065167;28;20187;-67
2021/06/23 10:17:31;;;;;;;1.05;0.82;;;;;;;;;;5066663;28;20095;-66
2021/06/23 10:19:58;;;;;;;1.27;0.70;;;;;;;;;;5061379;28;20086;-66
2021/06/23 10:22:25;;;;;;;1.17;0.70;;;;;;;;;;5058635;28;20102;-66
2021/06/23 10:24:54;;;;;;;0.60;0.60;;;;;;;;;;5060670;28;20080;-66
2021/06/23 10:27:22;;;;;;;1.58;0.80;;;;;;;;;;5059583;28;20533;-66
2021/06/23 10:29:52;;;;;;;1.73;0.80;;;;;;;;;;5067031;28;20479;-70
2021/06/23 10:32:19;;;;;;;1.85;0.82;;;;;;;;;;5058875;28;20484;-68
2021/06/23 10:34:45;;;;;;;1.73;0.50;;;;;;;;;;5059255;28;20072;-68
2021/06/23 10:37:13;;;;;;;1.58;0.40;;;;;;;;;;5059040;28;20132;-68
2021/06/23 10:39:40;;;;;;;1.38;0.65;;;;;;;;;;5058665;28;20530;-66
2021/06/23 10:42:08;;;;;;;1.67;0.50;;;;;;;;;;5059043;28;20076;-72
2021/06/23 10:44:42;;;;;;;0.82;0.55;;;;;;;;;;5063435;28;20068;-69
2021/06/23 10:47:27;;;;;;;1.40;0.80;;;;;;;;;;5056524;28;20131;-66
2021/06/23 10:49:54;;;;;;;5.15;1.38;;;;;;;;;;5061700;28;20045;-69
2021/06/23 10:52:20;;;;;;;0.52;0.20;;;;;;;;;;5058232;28;20087;-69
2021/06/23 10:54:50;;;;;;;0.95;0.57;;;;;;;;;;5059954;28;20071;-68
2021/06/23 10:57:44;;;;;;;0.45;0.30;;;;;;;;;;5058725;28;20041;-68
2021/06/23 11:00:13;;;;;;;1.60;0.45;;;;;;;;;;5058049;28;20412;-67
2021/06/23 11:02:46;;;;;;;1.77;0.80;;;;;;;;;;5062580;28;20111;-67
2021/06/23 11:05:22;;;;;;;1.02;0.40;;;;;;;;;;5058796;28;20055;-68
2021/06/23 11:07:55;;;;;;;0.60;0.60;;;;;;;;;;5066108;28;20053;-68
2021/06/23 11:10:27;;;;;;;0.80;0.60;;;;;;;;;;5057900;28;20132;-68
2021/06/23 11:12:57;;;;;;;;;;;;;;;;;;5059131;28;20057;-70
2021/06/23 11:15:31;;;;;;;0.50;0.50;;;;;;;;;;5058158;28;19934;-69
2021/06/23 11:18:18;;;;;;;1.55;0.60;;;;;;;;;;5059350;28;20100;-69
2021/06/23 11:20:50;;;;;;;0.60;0.60;;;;;;;;;;5058701;28;20079;-66
2021/06/23 11:23:41;;;;;;;0.73;0.57;;;;;;;;;;5058830;28;20128;-67
2021/06/23 11:26:21;;;;;;;0.80;0.60;;;;;;;;;;5060381;28;20096;-68
2021/06/23 11:28:53;;;;;;;0.47;0.47;;;;;;;;;;5062782;28;20764;-69
2021/06/23 11:31:21;;;;;;;0.47;0.47;;;;;;;;;;5058762;28;20133;-70
2021/06/23 11:33:58;;;;;;;1.00;0.82;;;;;;;;;;5061462;28;20048;-69
2021/06/23 11:36:25;;;;;;;5.97;0.85;;;;;;;;;;5060994;28;20049;-70
2021/06/23 11:38:54;;;;;;;10.15;1.90;;;;;;;;;;5059105;28;20478;-68
2021/06/23 11:41:21;;;;;;;6.13;1.13;;;;;;;;;;5061928;28;20076;-68
2021/06/23 11:43:48;;;;;;;0.68;0.50;;;;;;;;;;5057898;28;20049;-68
2021/06/23 11:46:15;;;;;;;4.25;0.68;;;;;;;;;;5059338;28;20079;-67
2021/06/23 11:48:42;;;;;;;2.10;0.80;;;;;;;;;;5057784;28;20529;-68
2021/06/23 11:51:09;;;;;;;0.30;0.30;;;;;;;;;;5061165;28;20572;-67
2021/06/23 11:53:36;;;;;;;0.88;0.50;;;;;;;;;;5059193;28;20041;-67
2021/06/23 11:56:04;;;;;;;0.95;0.57;;;;;;;;;;5058954;28;20053;-67
2021/06/23 11:58:30;;;;;;;0.88;0.63;;;;;;;;;;5058168;28;20178;-67
2021/06/23 12:00:57;;;;;;;0.90;0.50;;;;;;;;;;5058155;28;20079;-68
2021/06/23 12:03:24;;;;;;;0.60;0.60;;;;;;;;;;5058599;28;20052;-67
2021/06/23 12:05:50;;;;;;;0.57;0.40;;;;;;;;;;5058905;28;20080;-67
2021/06/23 12:08:17;;;;;;;0.73;0.50;;;;;;;;;;5059721;28;20135;-67
2021/06/23 12:10:44;;;;;;;0.50;0.38;;;;;;;;;;5057492;28;20068;-68
2021/06/23 12:13:11;;;;;;;0.75;0.57;;;;;;;;;;5059923;28;20069;-67
2021/06/23 12:15:38;;;;;;;0.77;0.60;;;;;;;;;;5055929;28;20147;-67
2021/06/23 12:18:07;;;;;;;0.95;0.60;;;;;;;;;;5062344;28;20135;-68
2021/06/23 12:20:35;;;;;;;0.60;0.50;;;;;;;;;;5057966;28;20559;-71
2021/06/23 12:23:05;;;;;;;1.80;0.60;;;;;;;;;;5041594;28;20048;-68
2021/06/23 12:25:36;;;;;;;0.95;0.55;;;;;;;;;;5058628;28;20095;-68
2021/06/23 12:28:04;;;;;;;0.50;0.50;;;;;;;;;;5067397;28;20076;-68
2021/06/23 12:30:31;;;;;;;1.40;0.60;;;;;;;;;;5065326;28;20068;-68
2021/06/23 12:32:59;;;;;;;0.82;0.52;;;;;;;;;;5066128;28;20091;-67
2021/06/23 12:35:27;;;;;;;0.70;0.57;;;;;;;;;;5065804;28;20503;-68
2021/06/23 12:37:54;;;;;;;0.47;0.47;;;;;;;;;;5057812;28;20460;-68
2021/06/23 12:40:21;;;;;;;0.88;0.60;;;;;;;;;;5058412;28;20049;-67
2021/06/23 12:42:48;;;;;;;0.73;0.55;;;;;;;;;;5057778;28;20056;-68
2021/06/23 12:45:15;;;;;;;0.90;0.50;;;;;;;;;;5062494;28;20539;-68
2021/06/23 12:47:42;;;;;;;0.50;0.40;;;;;;;;;;5057753;28;20049;-67
2021/06/23 12:50:12;;;;;;;1.33;0.60;;;;;;;;;;5059138;28;20482;-67
2021/06/23 12:52:38;;;;;;;1.65;0.40;;;;;;;;;;5056337;28;20554;-68
2021/06/23 12:55:05;;;;;;;0.45;0.40;;;;;;;;;;5058516;28;20083;-71
2021/06/23 12:57:32;;;;;;;1.75;0.50;;;;;;;;;;5060424;28;20483;-68
2021/06/23 12:59:59;;;;;;;0.63;0.47;;;;;;;;;;5057364;28;20080;-70
2021/06/23 13:02:25;;;;;;;0.40;0.40;;;;;;;;;;5074184;28;20142;-68
2021/06/23 13:04:52;;;;;;;0.30;0.30;;;;;;;;;;5057099;28;20049;-69
2021/06/23 13:07:19;;;;;;;0.45;0.30;;;;;;;;;;5058668;28;20103;-68
2021/06/23 13:09:46;;;;;;;0.60;0.40;;;;;;;;;;5059179;28;20052;-68
2021/06/23 13:12:12;;;;;;;1.38;0.40;;;;;;;;;;5059135;28;20049;-68
2021/06/23 13:14:39;;;;;;;0.73;0.60;;;;;;;;;;5056339;28;20080;-68
2021/06/23 13:17:05;;;;;;;0.65;0.40;;;;;;;;;;5058867;28;20098;-69
2021/06/23 13:19:37;;;;;;;;;;;;;;;;;;5057454;28;20052;-68
2021/06/23 13:22:03;;;;;;;0.32;0.32;;;;;;;;;;5056695;28;19975;-68
2021/06/23 13:24:30;;;;;;;0.50;0.50;;;;;;;;;;5060515;28;20045;-69
2021/06/23 13:26:57;;;;;;;0.75;0.50;;;;;;;;;;5061814;28;20103;-67
2021/06/23 13:29:25;;;;;;;0.75;0.75;;;;;;;;;;5057194;28;20080;-69
2021/06/23 13:31:51;;;;;;;3.70;1.30;;;;;;;;;;5057571;28;20087;-67
2021/06/23 13:34:18;;;;;;;3.95;1.05;;;;;;;;;;5058073;28;20140;-68
2021/06/23 13:36:45;;;;;;;6.47;2.42;;;;;;;;;;5057083;28;20053;-68
2021/06/23 13:39:12;;;;;;;2.95;1.30;;;;;;;;;;5061624;28;20067;-68
2021/06/23 13:41:43;;;;;;;1.65;1.40;;;;;;;;;;5056493;28;20040;-70
2021/06/23 13:44:10;;;;;;;5.80;1.73;;;;;;;;;;5064674;28;20077;-68
2021/06/23 13:46:37;;;;;;;3.58;1.88;;;;;;;;;;5059885;28;20053;-69
2021/06/23 13:49:04;;;;;;;1.60;1.50;;;;;;;;;;5060049;28;20049;-70
2021/06/23 13:51:31;;;;;;;2.90;1.70;;;;;;;;;;5063525;28;20553;-70
2021/06/23 13:53:58;;;;;;;3.13;1.60;;;;;;;;;;5062982;28;20121;-69
2021/06/23 13:56:25;;;;;;;4.85;1.50;;;;;;;;;;5064394;28;20054;-69
2021/06/23 13:58:52;;;;;;;2.15;1.92;;;;;;;;;;5058243;28;20052;-69
2021/06/23 14:01:19;;;;;;;5.10;1.38;;;;;;;;;;5059553;28;20475;-71
2021/06/23 14:03:46;;;;;;;5.20;1.70;;;;;;;;;;5062054;28;20462;-69
2021/06/23 14:06:13;;;;;;;5.07;2.03;;;;;;;;;;5060623;28;20047;-70
2021/06/23 14:08:40;;;;;;;7.32;1.73;;;;;;;;;;5058562;28;20045;-69
2021/06/23 14:11:07;;;;;;;1.60;1.50;;;;;;;;;;5063153;28;20487;-71
2021/06/23 14:13:34;;;;;;;2.00;1.20;;;;;;;;;;5064505;28;20044;-68
2021/06/23 14:16:01;;;;;;;2.72;1.80;;;;;;;;;;5063765;28;20055;-69
2021/06/23 14:18:31;;;;;;;2.05;1.20;;;;;;;;;;5060896;28;20106;-70
2021/06/23 14:20:59;;;;;;;2.25;1.40;;;;;;;;;;5065198;28;20045;-69
2021/06/23 14:23:28;;;;;;;1.60;1.50;;;;;;;;;;5058005;28;20128;-69
2021/06/23 14:25:55;;;;;;;3.30;1.90;;;;;;;;;;5065678;28;20403;-71
2021/06/23 14:28:22;;;;;;;2.80;1.40;;;;;;;;;;5059197;28;20515;-69
2021/06/23 14:30:50;;;;;;;2.75;2.08;;;;;;;;;;5061012;28;20053;-67
2021/06/23 14:33:28;;;;;;;2.75;1.85;;;;;;;;;;5063097;28;20162;-70
2021/06/23 14:35:56;;;;;;;2.10;1.73;;;;;;;;;;5057538;28;20045;-70
2021/06/23 14:38:23;;;;;;;5.38;1.95;;;;;;;;;;5060881;28;20076;-69
2021/06/23 14:40:51;;;;;;;2.00;1.90;;;;;;;;;;5058603;28;20095;-69
2021/06/23 14:43:18;;;;;;;3.30;1.85;;;;;;;;;;5060388;28;20044;-70
2021/06/23 14:45:45;;;;;;;4.82;2.65;;;;;;;;;;5060163;28;20056;-66
2021/06/23 14:48:12;;;;;;;1.98;1.73;;;;;;;;;;5059012;28;20139;-67
2021/06/23 14:50:40;;;;;;;1.98;1.85;;;;;;;;;;5065410;28;20162;-68
2021/06/23 14:53:07;;;;;;;3.90;2.03;;;;;;;;;;5057559;28;20056;-68
2021/06/23 14:55:34;;;;;;;2.50;2.30;;;;;;;;;;5060075;28;20457;-67
2021/06/23 14:58:03;;;;;;;3.03;1.80;;;;;;;;;;5058127;28;20427;-68
2021/06/23 15:00:30;;;;;;;2.20;2.00;;;;;;;;;;5057568;28;20052;-68
2021/06/23 15:02:58;;;;;;;2.75;1.90;;;;;;;;;;5057303;28;20056;-69
2021/06/23 15:05:25;;;;;;;2.80;1.90;;;;;;;;;;5060963;28;20060;-68
2021/06/23 15:07:53;;;;;;;2.53;2.05;;;;;;;;;;5058312;28;20427;-68